createdAt,value
2018-08-24T00:00:23.792Z,76.80
2018-08-24T00:05:28.137Z,76.60
2018-08-24T00:10:33.332Z,76.80
2018-08-24T00:15:37.881Z,76.90
2018-08-24T00:20:42.431Z,76.70
2018-08-24T00:25:46.716Z,76.80
2018-08-24T00:30:51.711Z,76.80
2018-08-24T00:35:56.066Z,76.50
2018-08-24T00:41:00.443Z,76.60
2018-08-24T00:46:05.644Z,76.90
2018-08-24T00:51:10.224Z,77.10
2018-08-24T00:56:14.754Z,77.10
2018-08-24T01:01:19.878Z,77.50
2018-08-24T01:06:25.253Z,77.60
2018-08-24T01:11:34.994Z,77.80
2018-08-24T01:16:44.509Z,78.10
2018-08-24T01:21:49.057Z,78.50
2018-08-24T01:27:04.990Z,79.00
2018-08-24T01:32:11.238Z,79.50
2018-08-24T01:37:15.788Z,79.60
2018-08-24T01:42:20.232Z,79.50
2018-08-24T01:47:25.067Z,79.40
2018-08-24T01:52:29.481Z,79.30
2018-08-24T01:57:33.910Z,79.00
2018-08-24T02:02:38.499Z,78.70
2018-08-24T02:07:42.964Z,78.90
2018-08-24T02:12:52.284Z,79.40
2018-08-24T02:18:01.634Z,80.40
2018-08-24T02:23:11.256Z,80.00
2018-08-24T02:28:15.759Z,80.50
2018-08-24T02:33:20.220Z,80.90
2018-08-24T02:38:24.551Z,81.40
2018-08-24T02:43:29.021Z,81.70
2018-08-24T02:48:33.388Z,81.30
2018-08-24T02:53:38.597Z,81.80
2018-08-24T02:58:42.978Z,82.50
2018-08-24T03:03:47.299Z,82.80
2018-08-24T03:08:52.539Z,84.60
2018-08-24T03:13:56.903Z,85.00
2018-08-24T03:19:01.265Z,90.30
2018-08-24T03:24:06.722Z,92.30
2018-08-24T03:29:11.255Z,93.90
2018-08-24T03:34:15.805Z,94.60
2018-08-24T03:39:20.284Z,94.50
2018-08-24T03:44:24.890Z,95.70
2018-08-24T03:49:29.453Z,95.70
2018-08-24T03:54:33.897Z,96.40
2018-08-24T03:59:38.311Z,97.10
2018-08-24T04:04:42.831Z,97.10
2018-08-24T04:09:47.195Z,97.70
2018-08-24T04:14:51.503Z,98.10
2018-08-24T04:19:56.060Z,98.20
2018-08-24T04:25:00.548Z,98.30
2018-08-24T04:30:05.039Z,99.00
2018-08-24T04:35:10.130Z,99.10
2018-08-24T04:40:14.521Z,99.20
2018-08-24T04:45:19.125Z,99.50
2018-08-24T04:50:25.308Z,99.60
2018-08-24T04:55:29.676Z,99.40
2018-08-24T05:00:34.107Z,99.60
2018-08-24T05:05:38.977Z,99.90
2018-08-24T05:10:44.128Z,99.50
2018-08-24T05:15:48.461Z,99.60
2018-08-24T05:20:53.033Z,99.20
2018-08-24T05:25:57.816Z,99.20
2018-08-24T05:31:02.441Z,98.50
2018-08-24T05:36:07.050Z,98.50
2018-08-24T05:41:11.405Z,98.10
2018-08-24T05:46:16.525Z,98.20
2018-08-24T05:51:20.885Z,97.40
2018-08-24T05:56:25.429Z,96.50
2018-08-24T06:01:29.890Z,96.10
2018-08-24T06:06:34.915Z,95.00
2018-08-24T06:11:39.460Z,94.80
2018-08-24T06:16:49.100Z,94.00
2018-08-24T06:21:53.707Z,93.90
2018-08-24T06:26:58.362Z,93.60
2018-08-24T06:32:03.059Z,93.60
2018-08-24T06:37:08.316Z,93.30
2018-08-24T06:42:13.046Z,93.60
2018-08-24T06:47:17.636Z,93.60
2018-08-24T06:52:22.357Z,92.90
2018-08-24T06:57:27.139Z,93.10
2018-08-24T07:02:31.682Z,92.30
2018-08-24T07:07:36.432Z,92.50
2018-08-24T07:12:40.973Z,91.90
2018-08-24T07:17:50.719Z,92.50
2018-08-24T07:22:55.141Z,92.80
2018-08-24T07:27:59.731Z,92.20
2018-08-24T07:33:04.252Z,92.00
2018-08-24T07:38:08.702Z,92.40
2018-08-24T07:43:13.377Z,91.60
2018-08-24T07:48:17.784Z,91.50
2018-08-24T07:53:22.250Z,90.90
2018-08-24T07:58:26.841Z,90.20
2018-08-24T08:03:31.390Z,89.80
2018-08-24T08:08:36.105Z,87.40
2018-08-24T08:13:41.189Z,87.70
2018-08-24T08:18:46.380Z,86.00
2018-08-24T08:23:50.857Z,85.90
2018-08-24T08:28:55.278Z,85.30
2018-08-24T08:33:59.998Z,86.20
2018-08-24T08:39:05.752Z,84.80
2018-08-24T08:44:10.845Z,83.40
2018-08-24T08:49:15.155Z,81.90
2018-08-24T08:54:20.001Z,81.30
2018-08-24T08:59:24.420Z,80.80
2018-08-24T09:04:28.968Z,81.70
2018-08-24T09:09:33.432Z,83.20
2018-08-24T09:14:38.702Z,84.50
2018-08-24T09:19:48.260Z,85.30
2018-08-24T09:25:01.074Z,85.20
2018-08-24T09:30:06.559Z,86.10
2018-08-24T09:35:11.169Z,90.40
2018-08-24T09:40:15.695Z,93.30
2018-08-24T09:45:20.137Z,94.70
2018-08-24T09:50:29.554Z,95.60
2018-08-24T09:55:39.727Z,95.80
2018-08-24T10:00:49.405Z,94.40
2018-08-24T10:06:00.287Z,92.90
2018-08-24T10:11:05.072Z,91.50
2018-08-24T10:16:09.465Z,88.90
2018-08-24T10:21:14.044Z,85.40
2018-08-24T10:26:19.846Z,84.50
2018-08-24T10:31:24.286Z,82.80
2018-08-24T10:36:29.159Z,81.30
2018-08-24T10:41:34.304Z,77.40
2018-08-24T10:46:54.545Z,76.10
2018-08-24T10:52:03.152Z,71.00
2018-08-24T10:57:07.562Z,72.40
2018-08-24T11:02:12.025Z,71.30
2018-08-24T11:07:16.731Z,72.50
2018-08-24T11:12:21.253Z,70.70
2018-08-24T11:17:25.909Z,66.50
2018-08-24T11:22:30.980Z,64.30
2018-08-24T11:27:35.739Z,65.00
2018-08-24T11:32:40.726Z,64.90
2018-08-24T11:37:45.191Z,65.60
2018-08-24T11:42:49.778Z,66.20
2018-08-24T11:47:54.213Z,63.40
2018-08-24T11:52:58.866Z,64.90
2018-08-24T11:58:03.252Z,61.40
2018-08-24T12:03:08.537Z,58.30
2018-08-24T12:08:13.416Z,57.10
2018-08-24T12:13:17.985Z,57.50
2018-08-24T12:18:22.536Z,56.20
2018-08-24T12:23:28.933Z,55.10
2018-08-24T12:28:35.764Z,52.10
2018-08-24T12:33:42.274Z,48.80
2018-08-24T12:38:49.081Z,49.40
2018-08-24T12:43:56.006Z,50.40
2018-08-24T12:49:04.007Z,48.60
2018-08-24T12:54:10.913Z,47.50
2018-08-24T12:59:18.435Z,47.30
2018-08-24T13:04:25.653Z,46.10
2018-08-24T13:09:32.346Z,46.70
2018-08-24T13:14:40.125Z,44.90
2018-08-24T13:19:46.908Z,43.40
2018-08-24T13:24:53.183Z,40.00
2018-08-24T13:29:59.780Z,39.90
2018-08-24T13:44:46.920Z,37.90
2018-08-24T13:49:54.757Z,37.60
2018-08-24T13:55:02.167Z,35.10
2018-08-24T14:00:10.148Z,32.80
2018-08-24T14:05:17.664Z,32.60
2018-08-24T14:10:25.012Z,32.70
2018-08-24T14:15:34.404Z,33.90
2018-08-24T14:20:42.837Z,36.50
2018-08-24T14:25:49.081Z,38.50
2018-08-24T14:30:57.052Z,40.10
2018-08-24T14:36:05.027Z,39.20
2018-08-24T14:41:13.155Z,39.20
2018-08-24T14:46:20.926Z,40.20
2018-08-24T14:51:26.659Z,40.20
2018-08-24T14:56:31.249Z,40.10
2018-08-24T15:01:35.644Z,39.10
2018-08-24T15:06:40.356Z,38.80
2018-08-24T15:11:44.774Z,38.70
2018-08-24T15:16:49.262Z,38.60
2018-08-24T15:21:53.785Z,37.80
2018-08-24T15:26:58.209Z,38.20
2018-08-24T15:32:02.788Z,38.80
2018-08-24T15:37:07.177Z,39.40
2018-08-24T15:42:11.699Z,39.60
2018-08-24T15:47:16.732Z,40.30
2018-08-24T15:52:21.293Z,39.40
2018-08-24T15:57:25.869Z,39.60
2018-08-24T16:02:30.363Z,37.90
2018-08-24T16:07:38.387Z,39.50
2018-08-24T16:12:42.929Z,40.70
2018-08-24T16:17:51.647Z,41.30
2018-08-24T16:22:57.022Z,41.10
2018-08-24T16:28:01.445Z,40.40
2018-08-24T16:33:05.809Z,41.90
2018-08-24T16:38:10.494Z,42.70
2018-08-24T16:43:15.478Z,43.20
2018-08-24T16:48:20.008Z,43.60
2018-08-24T16:53:25.092Z,43.60
2018-08-24T16:58:29.719Z,44.20
2018-08-24T17:03:34.159Z,44.50
2018-08-24T17:08:38.612Z,45.10
2018-08-24T17:13:43.108Z,45.50
2018-08-24T17:18:47.596Z,46.30
2018-08-24T17:23:52.127Z,46.50
2018-08-24T17:28:56.681Z,46.70
2018-08-24T17:34:01.141Z,46.80
2018-08-24T17:39:08.870Z,46.70
2018-08-24T17:44:13.978Z,46.20
2018-08-24T17:49:18.368Z,46.30
2018-08-24T17:54:23.620Z,46.80
2018-08-24T17:59:28.176Z,47.30
2018-08-24T18:04:32.951Z,47.60
2018-08-24T18:09:37.786Z,48.00
2018-08-24T18:14:42.782Z,48.30
2018-08-24T18:19:47.261Z,48.70
2018-08-24T18:24:51.756Z,48.90
2018-08-24T18:29:56.361Z,49.30
2018-08-24T18:35:01.287Z,49.60
2018-08-24T18:40:06.091Z,49.90
2018-08-24T18:45:10.875Z,50.00
2018-08-24T18:50:15.551Z,50.50
2018-08-24T18:55:26.240Z,51.20
2018-08-24T19:00:31.707Z,51.40
2018-08-24T19:05:38.201Z,51.80
2018-08-24T19:11:06.811Z,52.20
2018-08-24T19:17:22.116Z,52.60
2018-08-24T19:22:31.947Z,52.60
2018-08-24T19:27:42.619Z,52.90
2018-08-24T19:32:51.519Z,53.40
2018-08-24T19:37:58.319Z,53.80
2018-08-24T19:43:04.399Z,54.00
2018-08-24T19:48:14.693Z,54.30
2018-08-24T19:53:21.168Z,54.40
2018-08-24T19:58:32.265Z,54.70
2018-08-24T20:03:39.065Z,55.10
2018-08-24T20:08:49.853Z,55.30
2018-08-24T20:13:56.647Z,55.60
2018-08-24T20:19:12.256Z,56.00
2018-08-24T20:24:19.237Z,56.40
2018-08-24T20:29:24.930Z,56.90
2018-08-24T20:45:46.460Z,58.00
2018-08-24T20:50:52.744Z,58.50
2018-08-24T20:56:00.258Z,58.90
2018-08-24T21:01:18.731Z,59.40
2018-08-24T21:06:26.144Z,60.10
2018-08-24T21:11:53.010Z,60.70
2018-08-24T21:16:59.585Z,61.10
2018-08-24T21:22:05.583Z,61.60
2018-08-24T21:27:12.073Z,61.20
2018-08-24T21:32:17.543Z,60.70
2018-08-24T21:37:26.078Z,60.70
2018-08-24T21:42:35.642Z,59.70
2018-08-24T21:47:41.112Z,60.10
2018-08-24T21:52:53.333Z,59.40
2018-08-24T21:57:59.788Z,59.50
2018-08-24T22:03:07.035Z,59.30
2018-08-24T22:08:12.907Z,59.80
2018-08-24T22:13:19.602Z,59.10
2018-08-24T22:18:30.091Z,59.30
2018-08-24T22:23:35.641Z,59.40
2018-08-24T22:28:42.251Z,59.60
2018-08-24T22:33:49.353Z,59.90
2018-08-24T22:41:06.202Z,59.50
2018-08-24T22:46:12.392Z,60.40
2018-08-24T22:51:18.264Z,60.00
2018-08-24T22:56:36.528Z,59.90
2018-08-24T23:01:48.548Z,59.60
2018-08-24T23:06:58.459Z,60.20
2018-08-24T23:12:30.809Z,60.00
2018-08-24T23:17:37.501Z,59.90
2018-08-24T23:22:43.291Z,59.80
2018-08-24T23:27:49.572Z,59.80
2018-08-24T23:32:56.370Z,59.80
2018-08-24T23:38:01.442Z,59.80
2018-08-24T23:43:06.886Z,60.60
2018-08-24T23:48:12.333Z,59.80
2018-08-24T23:53:18.542Z,59.80
2018-08-24T23:58:23.579Z,59.90
